sensor_id;sensor_type;location;lat;lon;timestamp;pressure;altitude;pressure_sealevel;temperature;humidity
65553;BME280;72126;51.560;14.368;2023-10-08T00:00:54;100342.50;;;20.24;55.71
65553;BME280;72126;51.560;14.368;2023-10-08T00:03:20;100336.38;;;20.23;55.61
65553;BME280;72126;51.560;14.368;2023-10-08T00:05:45;100339.03;;;20.23;55.73
65553;BME280;72126;51.560;14.368;2023-10-08T00:08:10;100328.63;;;20.22;55.60
65553;BME280;72126;51.560;14.368;2023-10-08T00:10:36;100346.19;;;20.23;55.65
65553;BME280;72126;51.560;14.368;2023-10-08T00:13:01;100348.03;;;20.22;55.98
65553;BME280;72126;51.560;14.368;2023-10-08T00:15:26;100344.56;;;20.22;55.57
65553;BME280;72126;51.560;14.368;2023-10-08T00:17:52;100343.53;;;20.23;55.65
65553;BME280;72126;51.560;14.368;2023-10-08T00:20:17;100351.50;;;20.23;55.74
65553;BME280;72126;51.560;14.368;2023-10-08T00:22:42;100352.53;;;20.22;55.68
65553;BME280;72126;51.560;14.368;2023-10-08T00:25:08;100345.59;;;20.21;55.83
65553;BME280;72126;51.560;14.368;2023-10-08T00:27:33;100357.03;;;20.21;55.74
65553;BME280;72126;51.560;14.368;2023-10-08T00:29:58;100351.72;;;20.21;55.74
65553;BME280;72126;51.560;14.368;2023-10-08T00:32:23;100362.38;;;20.21;55.79
65553;BME280;72126;51.560;14.368;2023-10-08T00:34:49;100368.72;;;20.20;55.68
65553;BME280;72126;51.560;14.368;2023-10-08T00:37:14;100376.69;;;20.20;55.70
65553;BME280;72126;51.560;14.368;2023-10-08T00:39:39;100375.84;;;20.20;55.74
65553;BME280;72126;51.560;14.368;2023-10-08T00:42:05;100384.66;;;20.20;55.75
65553;BME280;72126;51.560;14.368;2023-10-08T00:44:30;100380.34;;;20.19;55.75
65553;BME280;72126;51.560;14.368;2023-10-08T00:46:56;100383.00;;;20.19;55.89
65553;BME280;72126;51.560;14.368;2023-10-08T00:49:23;100384.84;;;20.19;55.78
65553;BME280;72126;51.560;14.368;2023-10-08T00:51:54;100386.72;;;20.18;55.74
65553;BME280;72126;51.560;14.368;2023-10-08T00:54:19;100393.88;;;20.18;55.78
65553;BME280;72126;51.560;14.368;2023-10-08T00:56:46;100395.50;;;20.19;55.75
65553;BME280;72126;51.560;14.368;2023-10-08T00:59:12;100388.56;;;20.18;55.79
65553;BME280;72126;51.560;14.368;2023-10-08T01:01:37;100389.59;;;20.17;55.87
65553;BME280;72126;51.560;14.368;2023-10-08T01:04:03;100392.03;;;20.18;55.75
65553;BME280;72126;51.560;14.368;2023-10-08T01:06:28;100383.22;;;20.18;55.74
65553;BME280;72126;51.560;14.368;2023-10-08T01:08:53;100394.09;;;20.16;55.87
65553;BME280;72126;51.560;14.368;2023-10-08T01:11:22;100401.03;;;20.17;55.84
65553;BME280;72126;51.560;14.368;2023-10-08T01:13:48;100401.25;;;20.16;55.71
65553;BME280;72126;51.560;14.368;2023-10-08T01:16:13;100409.22;;;20.16;55.78
65553;BME280;72126;51.560;14.368;2023-10-08T01:18:38;100415.34;;;20.16;55.76
65553;BME280;72126;51.560;14.368;2023-10-08T01:21:03;100419.06;;;20.15;55.85
65553;BME280;72126;51.560;14.368;2023-10-08T01:23:28;100430.50;;;20.16;56.13
65553;BME280;72126;51.560;14.368;2023-10-08T01:25:54;100437.66;;;20.15;55.70
65553;BME280;72126;51.560;14.368;2023-10-08T01:28:19;100435.81;;;20.16;55.80
65553;BME280;72126;51.560;14.368;2023-10-08T01:30:44;100434.19;;;20.15;55.80
65553;BME280;72126;51.560;14.368;2023-10-08T01:33:09;100439.50;;;20.15;55.81
65553;BME280;72126;51.560;14.368;2023-10-08T01:35:34;100443.97;;;20.14;55.72
65553;BME280;72126;51.560;14.368;2023-10-08T01:38:00;100453.78;;;20.14;55.63
65553;BME280;72126;51.560;14.368;2023-10-08T01:40:26;100462.00;;;20.12;55.75
65553;BME280;72126;51.560;14.368;2023-10-08T01:42:52;100470.78;;;20.13;55.75
65553;BME280;72126;51.560;14.368;2023-10-08T01:45:17;100478.75;;;20.13;55.82
65553;BME280;72126;51.560;14.368;2023-10-08T01:47:42;100497.38;;;20.13;55.89
65553;BME280;72126;51.560;14.368;2023-10-08T01:50:08;100490.19;;;20.13;55.78
65553;BME280;72126;51.560;14.368;2023-10-08T01:52:33;100482.44;;;20.12;55.88
65553;BME280;72126;51.560;14.368;2023-10-08T01:54:58;100487.75;;;20.12;55.83
65553;BME280;72126;51.560;14.368;2023-10-08T01:57:23;100482.66;;;20.10;55.89
65553;BME280;72126;51.560;14.368;2023-10-08T01:59:48;100484.28;;;20.11;55.75
65553;BME280;72126;51.560;14.368;2023-10-08T02:02:14;100490.66;;;20.10;55.85
65553;BME280;72126;51.560;14.368;2023-10-08T02:04:39;100487.97;;;20.10;55.88
65553;BME280;72126;51.560;14.368;2023-10-08T02:07:06;100506.59;;;20.10;55.66
65553;BME280;72126;51.560;14.368;2023-10-08T02:09:31;100516.41;;;20.10;55.75
65553;BME280;72126;51.560;14.368;2023-10-08T02:11:57;100535.22;;;20.08;55.76
65553;BME280;72126;51.560;14.368;2023-10-08T02:14:22;100530.69;;;20.08;55.74
65553;BME280;72126;51.560;14.368;2023-10-08T02:16:47;100536.88;;;20.09;55.82
65553;BME280;72126;51.560;14.368;2023-10-08T02:19:13;100547.69;;;20.07;55.82
65553;BME280;72126;51.560;14.368;2023-10-08T02:21:39;100549.31;;;20.08;55.82
65553;BME280;72126;51.560;14.368;2023-10-08T02:24:05;100543.41;;;20.06;55.64
65553;BME280;72126;51.560;14.368;2023-10-08T02:26:31;100542.59;;;20.06;55.78
65553;BME280;72126;51.560;14.368;2023-10-08T02:28:56;100544.22;;;20.07;55.70
65553;BME280;72126;51.560;14.368;2023-10-08T02:31:21;100556.69;;;20.06;55.71
65553;BME280;72126;51.560;14.368;2023-10-08T02:33:46;100558.53;;;20.06;55.78
65553;BME280;72126;51.560;14.368;2023-10-08T02:36:11;100569.16;;;20.06;55.76
65553;BME280;72126;51.560;14.368;2023-10-08T02:38:37;100564.88;;;20.05;55.70
65553;BME280;72126;51.560;14.368;2023-10-08T02:41:02;100564.88;;;20.05;55.73
65553;BME280;72126;51.560;14.368;2023-10-08T02:43:27;100574.69;;;20.04;55.75
65553;BME280;72126;51.560;14.368;2023-10-08T02:45:52;100590.66;;;20.04;55.63
65553;BME280;72126;51.560;14.368;2023-10-08T02:48:17;100605.56;;;20.05;55.64
65553;BME280;72126;51.560;14.368;2023-10-08T02:50:43;100595.16;;;20.04;55.73
65553;BME280;72126;51.560;14.368;2023-10-08T02:53:08;100607.63;;;20.03;55.70
65553;BME280;72126;51.560;14.368;2023-10-08T02:55:33;100609.44;;;20.03;55.69
65553;BME280;72126;51.560;14.368;2023-10-08T02:57:59;100602.31;;;20.03;55.77
65553;BME280;72126;51.560;14.368;2023-10-08T03:00:24;100606.78;;;20.03;55.67
65553;BME280;72126;51.560;14.368;2023-10-08T03:02:49;100606.78;;;20.03;55.67
65553;BME280;72126;51.560;14.368;2023-10-08T03:05:14;100608.84;;;20.01;55.79
65553;BME280;72126;51.560;14.368;2023-10-08T03:07:39;100614.16;;;20.01;55.70
65553;BME280;72126;51.560;14.368;2023-10-08T03:10:05;100630.09;;;20.01;55.74
65553;BME280;72126;51.560;14.368;2023-10-08T03:12:30;100643.41;;;20.01;55.69
65553;BME280;72126;51.560;14.368;2023-10-08T03:14:56;100655.88;;;20.00;55.69
65553;BME280;72126;51.560;14.368;2023-10-08T03:17:21;100661.19;;;20.00;55.60
65553;BME280;72126;51.560;14.368;2023-10-08T03:19:46;100662.22;;;19.99;55.67
65553;BME280;72126;51.560;14.368;2023-10-08T03:22:14;100670.19;;;19.99;55.68
65553;BME280;72126;51.560;14.368;2023-10-08T03:24:39;100670.19;;;19.99;55.78
65553;BME280;72126;51.560;14.368;2023-10-08T03:27:05;100658.75;;;19.99;55.56
65553;BME280;72126;51.560;14.368;2023-10-08T03:29:32;100671.22;;;19.98;55.81
65553;BME280;72126;51.560;14.368;2023-10-08T03:31:57;100673.88;;;19.98;55.69
65553;BME280;72126;51.560;14.368;2023-10-08T03:34:22;100667.75;;;19.98;55.62
65553;BME280;72126;51.560;14.368;2023-10-08T03:36:48;100654.47;;;19.98;55.64
65553;BME280;72126;51.560;14.368;2023-10-08T03:39:17;100646.69;;;19.96;55.64
65553;BME280;72126;51.560;14.368;2023-10-08T03:41:43;100647.69;;;19.95;55.71
65553;BME280;72126;51.560;14.368;2023-10-08T03:44:08;100650.78;;;19.92;55.93
65553;BME280;72126;51.560;14.368;2023-10-08T03:46:33;100648.31;;;19.91;55.81
65553;BME280;72126;51.560;14.368;2023-10-08T03:48:59;100659.97;;;19.90;55.55
65553;BME280;72126;51.560;14.368;2023-10-08T03:51:24;100655.09;;;19.87;55.77
65553;BME280;72126;51.560;14.368;2023-10-08T03:53:49;100646.09;;;19.88;55.66
65553;BME280;72126;51.560;14.368;2023-10-08T03:56:14;100644.47;;;19.87;55.58
65553;BME280;72126;51.560;14.368;2023-10-08T03:58:39;100634.84;;;19.86;55.69
65553;BME280;72126;51.560;14.368;2023-10-08T04:01:05;100637.50;;;19.86;55.55
65553;BME280;72126;51.560;14.368;2023-10-08T04:03:30;100641.19;;;19.85;55.61
65553;BME280;72126;51.560;14.368;2023-10-08T04:05:56;100647.31;;;19.85;55.44
65553;BME280;72126;51.560;14.368;2023-10-08T04:08:21;100651.00;;;19.84;55.49
65553;BME280;72126;51.560;14.368;2023-10-08T04:10:46;100661.63;;;19.84;55.47
65553;BME280;72126;51.560;14.368;2023-10-08T04:13:11;100661.84;;;19.83;55.34
65553;BME280;72126;51.560;14.368;2023-10-08T04:15:39;100660.00;;;19.83;55.55
65553;BME280;72126;51.560;14.368;2023-10-08T04:18:04;100664.50;;;19.83;55.42
65553;BME280;72126;51.560;14.368;2023-10-08T04:20:29;100659.19;;;19.83;55.52
65553;BME280;72126;51.560;14.368;2023-10-08T04:22:54;100672.47;;;19.83;55.33
65553;BME280;72126;51.560;14.368;2023-10-08T04:25:20;100686.78;;;19.81;55.45
65553;BME280;72126;51.560;14.368;2023-10-08T04:27:45;100694.75;;;19.81;55.34
65553;BME280;72126;51.560;14.368;2023-10-08T04:30:11;100704.56;;;19.81;55.43
65553;BME280;72126;51.560;14.368;2023-10-08T04:32:37;100704.56;;;19.81;55.47
65553;BME280;72126;51.560;14.368;2023-10-08T04:35:02;100707.22;;;19.81;55.26
65553;BME280;72126;51.560;14.368;2023-10-08T04:37:27;100712.72;;;19.79;55.35
65553;BME280;72126;51.560;14.368;2023-10-08T04:39:52;100732.94;;;19.80;55.35
65553;BME280;72126;51.560;14.368;2023-10-08T04:42:17;100726.00;;;19.79;55.39
65553;BME280;72126;51.560;14.368;2023-10-08T04:44:43;100720.69;;;19.79;55.35
65553;BME280;72126;51.560;14.368;2023-10-08T04:47:08;100724.16;;;19.80;55.35
65553;BME280;72126;51.560;14.368;2023-10-08T04:49:33;100737.66;;;19.78;55.29
65553;BME280;72126;51.560;14.368;2023-10-08T04:52:01;100738.69;;;19.77;55.40
65553;BME280;72126;51.560;14.368;2023-10-08T04:54:27;100742.97;;;19.78;55.34
65553;BME280;72126;51.560;14.368;2023-10-08T04:56:53;100751.97;;;19.77;55.48
65553;BME280;72126;51.560;14.368;2023-10-08T04:59:18;100749.31;;;19.77;55.34
65553;BME280;72126;51.560;14.368;2023-10-08T05:01:43;100757.28;;;19.77;55.38
65553;BME280;72126;51.560;14.368;2023-10-08T05:04:08;100783.03;;;19.77;55.53
65553;BME280;72126;51.560;14.368;2023-10-08T05:06:34;100781.41;;;19.76;55.33
65553;BME280;72126;51.560;14.368;2023-10-08T05:09:01;100787.53;;;19.76;55.38
65553;BME280;72126;51.560;14.368;2023-10-08T05:11:26;100796.53;;;19.75;55.44
65553;BME280;72126;51.560;14.368;2023-10-08T05:13:51;100792.22;;;19.74;55.38
65553;BME280;72126;51.560;14.368;2023-10-08T05:16:17;100795.69;;;19.75;55.46
65553;BME280;72126;51.560;14.368;2023-10-08T05:18:42;100794.88;;;19.74;55.45
65553;BME280;72126;51.560;14.368;2023-10-08T05:21:07;100800.19;;;19.74;55.36
65553;BME280;72126;51.560;14.368;2023-10-08T05:23:33;100799.59;;;19.72;55.53
65553;BME280;72126;51.560;14.368;2023-10-08T05:25:58;100808.16;;;19.74;55.38
65553;BME280;72126;51.560;14.368;2023-10-08T05:28:24;100806.53;;;19.73;55.48
65553;BME280;72126;51.560;14.368;2023-10-08T05:30:50;100804.91;;;19.72;55.62
65553;BME280;72126;51.560;14.368;2023-10-08T05:33:16;100803.88;;;19.73;55.55
65553;BME280;72126;51.560;14.368;2023-10-08T05:35:42;100826.16;;;19.72;55.44
65553;BME280;72126;51.560;14.368;2023-10-08T05:38:11;100819.22;;;19.71;55.45
65553;BME280;72126;51.560;14.368;2023-10-08T05:40:36;100816.56;;;19.71;55.38
65553;BME280;72126;51.560;14.368;2023-10-08T05:43:02;100819.22;;;19.71;55.38
65553;BME280;72126;51.560;14.368;2023-10-08T05:45:27;100812.25;;;19.70;55.57
65553;BME280;72126;51.560;14.368;2023-10-08T05:47:52;100822.91;;;19.70;55.37
65553;BME280;72126;51.560;14.368;2023-10-08T05:50:17;100830.88;;;19.70;55.41
65553;BME280;72126;51.560;14.368;2023-10-08T05:52:47;100846.81;;;19.70;55.44
65553;BME280;72126;51.560;14.368;2023-10-08T05:55:13;100860.09;;;19.70;55.42
65553;BME280;72126;51.560;14.368;2023-10-08T05:57:38;100873.38;;;19.70;55.43
65553;BME280;72126;51.560;14.368;2023-10-08T06:00:03;100862.75;;;19.70;55.57
65553;BME280;72126;51.560;14.368;2023-10-08T06:02:30;100863.72;;;19.69;55.35
65553;BME280;72126;51.560;14.368;2023-10-08T06:05:00;100870.06;;;19.68;55.50
65553;BME280;72126;51.560;14.368;2023-10-08T06:07:26;100879.06;;;19.67;55.36
65553;BME280;72126;51.560;14.368;2023-10-08T06:09:51;100880.69;;;19.68;55.52
65553;BME280;72126;51.560;14.368;2023-10-08T06:12:16;100886.00;;;19.68;55.46
65553;BME280;72126;51.560;14.368;2023-10-08T06:14:41;100885.19;;;19.68;55.44
65553;BME280;72126;51.560;14.368;2023-10-08T06:17:07;100889.69;;;19.67;55.51
65553;BME280;72126;51.560;14.368;2023-10-08T06:19:32;100897.66;;;19.67;55.38
65553;BME280;72126;51.560;14.368;2023-10-08T06:21:57;100897.66;;;19.67;55.38
65553;BME280;72126;51.560;14.368;2023-10-08T06:24:22;100902.97;;;19.67;55.42
65553;BME280;72126;51.560;14.368;2023-10-08T06:26:47;100898.69;;;19.66;55.57
65553;BME280;72126;51.560;14.368;2023-10-08T06:29:13;100897.88;;;19.66;55.59
65553;BME280;72126;51.560;14.368;2023-10-08T06:31:38;100904.00;;;19.66;55.52
65553;BME280;72126;51.560;14.368;2023-10-08T06:34:03;100897.88;;;19.66;55.46
65553;BME280;72126;51.560;14.368;2023-10-08T06:36:28;100917.28;;;19.66;55.56
65553;BME280;72126;51.560;14.368;2023-10-08T06:38:53;100931.59;;;19.65;55.47
65553;BME280;72126;51.560;14.368;2023-10-08T06:41:18;100943.03;;;19.66;55.59
65553;BME280;72126;51.560;14.368;2023-10-08T06:43:45;100939.56;;;19.65;55.47
65553;BME280;72126;51.560;14.368;2023-10-08T06:46:11;100958.16;;;19.65;55.58
65553;BME280;72126;51.560;14.368;2023-10-08T06:48:36;100953.88;;;19.64;55.53
65553;BME280;72126;51.560;14.368;2023-10-08T06:51:01;100962.81;;;19.63;55.42
65553;BME280;72126;51.560;14.368;2023-10-08T06:53:26;100970.63;;;19.65;55.61
65553;BME280;72126;51.560;14.368;2023-10-08T06:55:51;100975.13;;;19.64;55.69
65553;BME280;72126;51.560;14.368;2023-10-08T06:58:17;100983.09;;;19.64;55.60
65553;BME280;72126;51.560;14.368;2023-10-08T07:00:42;100989.38;;;19.63;55.63
65553;BME280;72126;51.560;14.368;2023-10-08T07:03:10;100986.72;;;19.63;55.68
65553;BME280;72126;51.560;14.368;2023-10-08T07:05:35;100996.53;;;19.63;55.43
65553;BME280;72126;51.560;14.368;2023-10-08T07:08:00;100999.03;;;19.64;55.65
65553;BME280;72126;51.560;14.368;2023-10-08T07:10:25;100995.50;;;19.64;55.63
65553;BME280;72126;51.560;14.368;2023-10-08T07:12:51;100997.34;;;19.63;55.50
65553;BME280;72126;51.560;14.368;2023-10-08T07:15:16;101017.63;;;19.64;55.52
65553;BME280;72126;51.560;14.368;2023-10-08T07:17:41;101000.00;;;19.63;55.48
65553;BME280;72126;51.560;14.368;2023-10-08T07:20:06;101002.88;;;19.62;55.61
65553;BME280;72126;51.560;14.368;2023-10-08T07:22:32;101007.97;;;19.63;55.55
65553;BME280;72126;51.560;14.368;2023-10-08T07:24:57;101009.81;;;19.63;55.50
65553;BME280;72126;51.560;14.368;2023-10-08T07:27:22;101014.31;;;19.62;55.64
65553;BME280;72126;51.560;14.368;2023-10-08T07:29:48;101020.66;;;19.61;55.51
65553;BME280;72126;51.560;14.368;2023-10-08T07:32:14;101032.91;;;19.62;55.57
65553;BME280;72126;51.560;14.368;2023-10-08T07:34:39;101030.25;;;19.62;55.66
65553;BME280;72126;51.560;14.368;2023-10-08T07:37:04;101040.88;;;19.62;55.48
65553;BME280;72126;51.560;14.368;2023-10-08T07:39:29;101046.19;;;19.62;55.55
65553;BME280;72126;51.560;14.368;2023-10-08T07:41:55;101049.88;;;19.61;55.53
65553;BME280;72126;51.560;14.368;2023-10-08T07:44:21;101047.22;;;19.61;55.78
65553;BME280;72126;51.560;14.368;2023-10-08T07:46:48;101056.00;;;19.62;55.48
65553;BME280;72126;51.560;14.368;2023-10-08T07:49:14;101064.19;;;19.60;55.64
65553;BME280;72126;51.560;14.368;2023-10-08T07:51:39;101076.44;;;19.61;55.46
65553;BME280;72126;51.560;14.368;2023-10-08T07:54:07;101073.78;;;19.61;55.56
65553;BME280;72126;51.560;14.368;2023-10-08T07:56:32;101076.44;;;19.61;55.49
65553;BME280;72126;51.560;14.368;2023-10-08T07:58:57;101081.75;;;19.61;55.47
65553;BME280;72126;51.560;14.368;2023-10-08T08:01:23;101086.03;;;19.62;55.48
65553;BME280;72126;51.560;14.368;2023-10-08T08:03:49;101095.03;;;19.61;55.55
65553;BME280;72126;51.560;14.368;2023-10-08T08:06:14;101103.81;;;19.62;55.41
65553;BME280;72126;51.560;14.368;2023-10-08T08:08:39;101089.72;;;19.61;55.49
65553;BME280;72126;51.560;14.368;2023-10-08T08:11:06;101098.50;;;19.62;55.47
65553;BME280;72126;51.560;14.368;2023-10-08T08:13:34;101103.00;;;19.61;55.55
65553;BME280;72126;51.560;14.368;2023-10-08T08:16:00;101102.19;;;19.61;55.40
65553;BME280;72126;51.560;14.368;2023-10-08T08:18:25;101116.28;;;19.61;55.44
65553;BME280;72126;51.560;14.368;2023-10-08T08:20:50;101113.63;;;19.61;55.57
65553;BME280;72126;51.560;14.368;2023-10-08T08:23:16;101117.09;;;19.62;55.60
65553;BME280;72126;51.560;14.368;2023-10-08T08:25:42;101112.81;;;19.61;55.56
65553;BME280;72126;51.560;14.368;2023-10-08T08:28:07;101103.81;;;19.62;55.40
65553;BME280;72126;51.560;14.368;2023-10-08T08:30:32;101108.50;;;19.60;55.51
65553;BME280;72126;51.560;14.368;2023-10-08T08:32:57;101112.81;;;19.61;55.49
65553;BME280;72126;51.560;14.368;2023-10-08T08:35:23;101114.63;;;19.60;55.41
65553;BME280;72126;51.560;14.368;2023-10-08T08:37:48;101118.13;;;19.61;55.47
65553;BME280;72126;51.560;14.368;2023-10-08T08:40:13;101114.63;;;19.60;55.48
65553;BME280;72126;51.560;14.368;2023-10-08T08:42:39;101121.78;;;19.60;55.52
65553;BME280;72126;51.560;14.368;2023-10-08T08:45:06;101128.75;;;19.61;55.59
65553;BME280;72126;51.560;14.368;2023-10-08T08:47:37;101127.09;;;19.60;55.44
65553;BME280;72126;51.560;14.368;2023-10-08T08:50:03;101127.94;;;19.60;55.50
65553;BME280;72126;51.560;14.368;2023-10-08T08:52:28;101137.53;;;19.61;55.61
65553;BME280;72126;51.560;14.368;2023-10-08T08:54:54;101143.66;;;19.62;55.46
65553;BME280;72126;51.560;14.368;2023-10-08T08:57:19;101136.50;;;19.62;55.29
65553;BME280;72126;51.560;14.368;2023-10-08T08:59:52;101145.28;;;19.63;55.43
65553;BME280;72126;51.560;14.368;2023-10-08T09:02:17;101149.59;;;19.64;55.33
65553;BME280;72126;51.560;14.368;2023-10-08T09:04:43;101153.91;;;19.65;55.55
65553;BME280;72126;51.560;14.368;2023-10-08T09:07:08;101147.78;;;19.64;55.48
65553;BME280;72126;51.560;14.368;2023-10-08T09:09:34;101154.72;;;19.65;55.57
65553;BME280;72126;51.560;14.368;2023-10-08T09:12:00;101161.06;;;19.64;55.40
65553;BME280;72126;51.560;14.368;2023-10-08T09:14:28;101162.88;;;19.64;55.62
65553;BME280;72126;51.560;14.368;2023-10-08T09:16:53;101167.19;;;19.65;55.45
65553;BME280;72126;51.560;14.368;2023-10-08T09:19:18;101171.69;;;19.64;55.43
65553;BME280;72126;51.560;14.368;2023-10-08T09:22:02;101166.53;;;19.63;55.52
65553;BME280;72126;51.560;14.368;2023-10-08T09:24:28;101167.38;;;19.63;55.58
65553;BME280;72126;51.560;14.368;2023-10-08T09:26:54;101168.81;;;19.66;55.51
65553;BME280;72126;51.560;14.368;2023-10-08T09:29:22;101170.25;;;19.68;55.81
65553;BME280;72126;51.560;14.368;2023-10-08T09:31:56;101179.06;;;19.69;55.70
65553;BME280;72126;51.560;14.368;2023-10-08T09:34:26;101181.53;;;19.70;55.67
65553;BME280;72126;51.560;14.368;2023-10-08T09:36:52;101175.97;;;19.65;55.62
65553;BME280;72126;51.560;14.368;2023-10-08T09:39:18;101176.03;;;19.72;55.43
65553;BME280;72126;51.560;14.368;2023-10-08T09:41:46;101176.03;;;19.72;55.23
65553;BME280;72126;51.560;14.368;2023-10-08T09:44:12;101181.13;;;19.73;55.29
65553;BME280;72126;51.560;14.368;2023-10-08T09:46:37;101180.31;;;19.73;55.29
65553;BME280;72126;51.560;14.368;2023-10-08T09:49:04;101192.56;;;19.74;55.08
65553;BME280;72126;51.560;14.368;2023-10-08T09:51:30;101190.75;;;19.74;54.96
65553;BME280;72126;51.560;14.368;2023-10-08T09:54:10;101195.25;;;19.74;55.15
65553;BME280;72126;51.560;14.368;2023-10-08T09:56:36;101200.56;;;19.74;54.98
65553;BME280;72126;51.560;14.368;2023-10-08T09:59:02;101204.03;;;19.74;55.07
65553;BME280;72126;51.560;14.368;2023-10-08T10:01:28;101206.06;;;19.72;54.77
65553;BME280;72126;51.560;14.368;2023-10-08T10:03:53;101198.47;;;19.69;54.78
65553;BME280;72126;51.560;14.368;2023-10-08T10:06:19;101198.66;;;19.68;54.59
65553;BME280;72126;51.560;14.368;2023-10-08T10:08:45;101211.38;;;19.72;54.58
65553;BME280;72126;51.560;14.368;2023-10-08T10:11:12;101203.03;;;19.75;54.57
65553;BME280;72126;51.560;14.368;2023-10-08T10:13:45;101198.94;;;19.79;54.19
65553;BME280;72126;51.560;14.368;2023-10-08T10:16:11;101202.88;;;19.84;54.12
65553;BME280;72126;51.560;14.368;2023-10-08T10:18:36;101202.50;;;19.87;54.01
65553;BME280;72126;51.560;14.368;2023-10-08T10:23:37;101215.00;;;19.93;53.82
65553;BME280;72126;51.560;14.368;2023-10-08T10:26:03;101218.91;;;19.97;53.56
65553;BME280;72126;51.560;14.368;2023-10-08T10:28:29;101223.22;;;19.98;53.58
65553;BME280;72126;51.560;14.368;2023-10-08T10:30:54;101223.03;;;19.99;53.78
65553;BME280;72126;51.560;14.368;2023-10-08T10:33:20;101228.75;;;20.03;53.52
65553;BME280;72126;51.560;14.368;2023-10-08T10:35:51;101232.06;;;20.05;53.50
65553;BME280;72126;51.560;14.368;2023-10-08T10:38:20;101241.47;;;20.07;53.35
65553;BME280;72126;51.560;14.368;2023-10-08T10:40:48;101235.75;;;20.11;53.36
65553;BME280;72126;51.560;14.368;2023-10-08T10:43:14;101225.75;;;20.13;53.38
65553;BME280;72126;51.560;14.368;2023-10-08T10:45:39;101233.53;;;20.14;53.43
65553;BME280;72126;51.560;14.368;2023-10-08T10:48:04;101231.31;;;20.18;53.34
65553;BME280;72126;51.560;14.368;2023-10-08T10:50:30;101231.09;;;20.19;53.19
65553;BME280;72126;51.560;14.368;2023-10-08T10:52:55;101231.75;;;20.21;53.16
65553;BME280;72126;51.560;14.368;2023-10-08T10:55:20;101230.72;;;20.22;53.04
65553;BME280;72126;51.560;14.368;2023-10-08T10:57:50;101245.44;;;20.25;53.01
65553;BME280;72126;51.560;14.368;2023-10-08T11:00:16;101245.28;;;20.26;52.98
65553;BME280;72126;51.560;14.368;2023-10-08T11:02:43;101237.09;;;20.28;52.97
65553;BME280;72126;51.560;14.368;2023-10-08T11:05:08;101241.38;;;20.29;53.01
65553;BME280;72126;51.560;14.368;2023-10-08T11:07:33;101238.72;;;20.29;52.84
65553;BME280;72126;51.560;14.368;2023-10-08T11:09:59;101241.19;;;20.30;52.93
65553;BME280;72126;51.560;14.368;2023-10-08T11:12:25;101237.53;;;20.31;52.89
65553;BME280;72126;51.560;14.368;2023-10-08T11:14:50;101237.53;;;20.31;52.97
65553;BME280;72126;51.560;14.368;2023-10-08T11:17:17;101238.34;;;20.32;52.88
65553;BME280;72126;51.560;14.368;2023-10-08T11:19:44;101235.47;;;20.33;52.93
65553;BME280;72126;51.560;14.368;2023-10-08T11:22:09;101234.47;;;20.34;53.26
65553;BME280;72126;51.560;14.368;2023-10-08T11:24:34;101236.91;;;20.36;52.92
65553;BME280;72126;51.560;14.368;2023-10-08T11:27:00;101236.75;;;20.38;52.98
65553;BME280;72126;51.560;14.368;2023-10-08T11:29:26;101235.72;;;20.39;52.92
65553;BME280;72126;51.560;14.368;2023-10-08T11:31:51;101233.47;;;20.42;52.88
65553;BME280;72126;51.560;14.368;2023-10-08T11:34:16;101246.59;;;20.44;52.90
65553;BME280;72126;51.560;14.368;2023-10-08T11:36:41;101237.41;;;20.46;52.94
65553;BME280;72126;51.560;14.368;2023-10-08T11:39:11;101230.88;;;20.49;52.86
65553;BME280;72126;51.560;14.368;2023-10-08T11:41:36;101231.50;;;20.51;52.78
65553;BME280;72126;51.560;14.368;2023-10-08T11:44:01;101229.66;;;20.51;52.89
65553;BME280;72126;51.560;14.368;2023-10-08T11:46:31;101225.97;;;20.52;52.82
65553;BME280;72126;51.560;14.368;2023-10-08T11:48:56;101211.84;;;20.52;52.85
65553;BME280;72126;51.560;14.368;2023-10-08T11:51:21;101216.16;;;20.53;52.80
65553;BME280;72126;51.560;14.368;2023-10-08T11:53:47;101215.16;;;20.54;52.86
65553;BME280;72126;51.560;14.368;2023-10-08T11:56:12;101220.47;;;20.54;52.83
65553;BME280;72126;51.560;14.368;2023-10-08T11:58:37;101211.47;;;20.55;52.82
65553;BME280;72126;51.560;14.368;2023-10-08T12:01:03;101219.63;;;20.53;52.86
65553;BME280;72126;51.560;14.368;2023-10-08T12:03:28;101221.31;;;20.54;52.95
65553;BME280;72126;51.560;14.368;2023-10-08T12:05:56;101215.16;;;20.54;52.89
65553;BME280;72126;51.560;14.368;2023-10-08T12:08:21;101222.13;;;20.55;52.89
65553;BME280;72126;51.560;14.368;2023-10-08T12:10:47;101221.47;;;20.53;52.95
65553;BME280;72126;51.560;14.368;2023-10-08T12:13:12;101223.31;;;20.52;52.92
65553;BME280;72126;51.560;14.368;2023-10-08T12:15:37;101234.78;;;20.53;52.96
65553;BME280;72126;51.560;14.368;2023-10-08T12:18:04;101234.78;;;20.53;53.05
65553;BME280;72126;51.560;14.368;2023-10-08T12:20:29;101224.34;;;20.51;53.01
65553;BME280;72126;51.560;14.368;2023-10-08T12:22:55;101226.78;;;20.53;53.16
65553;BME280;72126;51.560;14.368;2023-10-08T12:25:22;101226.78;;;20.53;53.02
65553;BME280;72126;51.560;14.368;2023-10-08T12:27:47;101221.47;;;20.53;52.97
65553;BME280;72126;51.560;14.368;2023-10-08T12:30:12;101231.13;;;20.54;53.02
65553;BME280;72126;51.560;14.368;2023-10-08T12:32:37;101227.63;;;20.53;53.00
65553;BME280;72126;51.560;14.368;2023-10-08T12:35:03;101221.31;;;20.54;52.97